sensor_id;sensor_type;location;lat;lon;timestamp;pressure;altitude;pressure_sealevel;temperature;humidity
64844;BME280;51310;52.198;5.422;2023-05-19T00:01:41;102595.19;;;7.45;100.00
64844;BME280;51310;52.198;5.422;2023-05-19T00:04:09;102598.22;;;7.43;100.00
64844;BME280;51310;52.198;5.422;2023-05-19T00:06:37;102602.09;;;7.33;100.00
64844;BME280;51310;52.198;5.422;2023-05-19T00:09:09;102605.16;;;7.31;100.00
64844;BME280;51310;52.198;5.422;2023-05-19T00:11:37;102599.31;;;7.32;100.00
64844;BME280;51310;52.198;5.422;2023-05-19T00:14:07;102590.09;;;7.27;100.00
64844;BME280;51310;52.198;5.422;2023-05-19T00:16:34;102588.94;;;7.25;100.00
64844;BME280;51310;52.198;5.422;2023-05-19T00:19:03;102584.34;;;7.22;100.00
64844;BME280;51310;52.198;5.422;2023-05-19T00:21:30;102585.75;;;7.20;100.00
64844;BME280;51310;52.198;5.422;2023-05-19T00:23:57;102584.34;;;7.22;100.00
64844;BME280;51310;52.198;5.422;2023-05-19T00:26:23;102579.50;;;7.18;100.00
64844;BME280;51310;52.198;5.422;2023-05-19T00:28:52;102586.06;;;7.16;100.00
64844;BME280;51310;52.198;5.422;2023-05-19T00:31:18;102585.81;;;7.14;100.00
64844;BME280;51310;52.198;5.422;2023-05-19T00:33:44;102581.44;;;7.13;100.00
64844;BME280;51310;52.198;5.422;2023-05-19T00:36:10;102591.56;;;7.06;100.00
64844;BME280;51310;52.198;5.422;2023-05-19T00:38:36;102590.41;;;7.04;100.00
64844;BME280;51310;52.198;5.422;2023-05-19T00:41:04;102577.28;;;7.08;100.00
64844;BME280;51310;52.198;5.422;2023-05-19T00:43:30;102582.00;;;7.05;100.00
64844;BME280;51310;52.198;5.422;2023-05-19T00:45:58;102585.47;;;7.06;100.00
64844;BME280;51310;52.198;5.422;2023-05-19T00:48:25;102587.28;;;6.94;100.00
64844;BME280;51310;52.198;5.422;2023-05-19T00:50:53;102591.91;;;6.96;100.00
64844;BME280;51310;52.198;5.422;2023-05-19T00:53:22;102589.63;;;6.92;100.00
64844;BME280;51310;52.198;5.422;2023-05-19T00:55:48;102588.19;;;6.94;100.00
64844;BME280;51310;52.198;5.422;2023-05-19T00:58:16;102588.19;;;6.94;100.00
64844;BME280;51310;52.198;5.422;2023-05-19T01:00:42;102588.97;;;6.88;100.00
64844;BME280;51310;52.198;5.422;2023-05-19T01:03:09;102590.34;;;6.91;100.00
64844;BME280;51310;52.198;5.422;2023-05-19T01:05:42;102587.84;;;6.86;100.00
64844;BME280;51310;52.198;5.422;2023-05-19T01:08:12;102588.25;;;6.89;100.00
64844;BME280;51310;52.198;5.422;2023-05-19T01:10:38;102590.63;;;6.87;100.00
64844;BME280;51310;52.198;5.422;2023-05-19T01:13:05;102593.50;;;6.77;100.00
64844;BME280;51310;52.198;5.422;2023-05-19T01:15:55;102592.31;;;6.81;100.00
64844;BME280;51310;52.198;5.422;2023-05-19T01:18:43;102592.31;;;6.81;100.00
64844;BME280;51310;52.198;5.422;2023-05-19T01:24:49;102597.50;;;6.75;100.00
64844;BME280;51310;52.198;5.422;2023-05-19T01:30:41;102584.28;;;6.72;100.00
64844;BME280;51310;52.198;5.422;2023-05-19T01:33:11;102588.22;;;6.76;100.00
64844;BME280;51310;52.198;5.422;2023-05-19T01:35:39;102585.94;;;6.72;100.00
64844;BME280;51310;52.198;5.422;2023-05-19T01:38:09;102582.00;;;6.68;100.00
64844;BME280;51310;52.198;5.422;2023-05-19T01:40:38;102580.34;;;6.69;100.00
64844;BME280;51310;52.198;5.422;2023-05-19T01:43:07;102574.09;;;6.67;100.00
64844;BME280;51310;52.198;5.422;2023-05-19T01:45:34;102573.41;;;6.68;100.00
64844;BME280;51310;52.198;5.422;2023-05-19T01:48:03;102574.56;;;6.70;100.00
64844;BME280;51310;52.198;5.422;2023-05-19T01:50:30;102570.84;;;6.68;100.00
64844;BME280;51310;52.198;5.422;2023-05-19T01:52:57;102574.59;;;6.64;100.00
64844;BME280;51310;52.198;5.422;2023-05-19T01:55:24;102577.88;;;6.63;100.00
64844;BME280;51310;52.198;5.422;2023-05-19T02:01:25;102563.78;;;6.54;100.00
64844;BME280;51310;52.198;5.422;2023-05-19T02:07:07;102565.69;;;6.49;100.00
64844;BME280;51310;52.198;5.422;2023-05-19T02:09:53;102562.50;;;6.45;100.00
64844;BME280;51310;52.198;5.422;2023-05-19T02:12:23;102571.88;;;6.39;100.00
64844;BME280;51310;52.198;5.422;2023-05-19T02:15:23;102565.09;;;6.39;100.00
64844;BME280;51310;52.198;5.422;2023-05-19T02:17:49;102564.97;;;6.32;100.00
64844;BME280;51310;52.198;5.422;2023-05-19T02:20:17;102566.75;;;6.39;100.00
64844;BME280;51310;52.198;5.422;2023-05-19T02:22:43;102564.75;;;6.30;100.00
64844;BME280;51310;52.198;5.422;2023-05-19T02:25:09;102570.56;;;6.29;100.00
64844;BME280;51310;52.198;5.422;2023-05-19T02:27:37;102555.94;;;6.28;100.00
64844;BME280;51310;52.198;5.422;2023-05-19T02:30:08;102562.53;;;6.21;100.00
64844;BME280;51310;52.198;5.422;2023-05-19T02:32:34;102564.44;;;6.16;100.00
64844;BME280;51310;52.198;5.422;2023-05-19T02:35:01;102566.78;;;6.14;100.00
64844;BME280;51310;52.198;5.422;2023-05-19T02:37:27;102570.06;;;6.13;100.00
64844;BME280;51310;52.198;5.422;2023-05-19T02:39:54;102558.69;;;6.11;100.00
64844;BME280;51310;52.198;5.422;2023-05-19T02:42:20;102555.91;;;6.10;100.00
64844;BME280;51310;52.198;5.422;2023-05-19T02:44:47;102559.59;;;6.12;100.00
64844;BME280;51310;52.198;5.422;2023-05-19T02:47:13;102557.09;;;6.06;100.00
64844;BME280;51310;52.198;5.422;2023-05-19T02:49:39;102555.75;;;6.03;100.00
64844;BME280;51310;52.198;5.422;2023-05-19T02:52:05;102554.19;;;5.92;100.00
64844;BME280;51310;52.198;5.422;2023-05-19T02:54:32;102550.91;;;5.99;100.00
64844;BME280;51310;52.198;5.422;2023-05-19T02:56:58;102544.16;;;5.93;100.00
64844;BME280;51310;52.198;5.422;2023-05-19T02:59:24;102546.28;;;5.90;100.00
64844;BME280;51310;52.198;5.422;2023-05-19T03:01:59;102547.47;;;5.87;100.00
64844;BME280;51310;52.198;5.422;2023-05-19T03:04:26;102545.63;;;5.86;100.00
64844;BME280;51310;52.198;5.422;2023-05-19T03:06:52;102538.66;;;5.85;100.00
64844;BME280;51310;52.198;5.422;2023-05-19T03:09:19;102539.16;;;5.82;100.00
64844;BME280;51310;52.198;5.422;2023-05-19T03:11:45;102537.09;;;5.80;100.00
64844;BME280;51310;52.198;5.422;2023-05-19T03:14:11;102539.41;;;5.78;100.00
64844;BME280;51310;52.198;5.422;2023-05-19T03:16:38;102532.66;;;5.79;100.00
64844;BME280;51310;52.198;5.422;2023-05-19T03:19:05;102540.84;;;5.76;100.00
64844;BME280;51310;52.198;5.422;2023-05-19T03:21:31;102538.50;;;5.78;100.00
64844;BME280;51310;52.198;5.422;2023-05-19T03:24:00;102539.00;;;5.75;100.00
64844;BME280;51310;52.198;5.422;2023-05-19T03:26:26;102542.50;;;5.70;100.00
64844;BME280;51310;52.198;5.422;2023-05-19T03:28:54;102537.19;;;5.68;100.00
64844;BME280;51310;52.198;5.422;2023-05-19T03:31:19;102536.44;;;5.75;100.00
64844;BME280;51310;52.198;5.422;2023-05-19T03:33:45;102540.91;;;5.70;100.00
64844;BME280;51310;52.198;5.422;2023-05-19T03:36:11;102537.63;;;5.71;100.00
64844;BME280;51310;52.198;5.422;2023-05-19T03:38:37;102537.66;;;5.66;100.00
64844;BME280;51310;52.198;5.422;2023-05-19T03:41:03;102544.63;;;5.67;100.00
64844;BME280;51310;52.198;5.422;2023-05-19T03:43:29;102542.75;;;5.66;100.00
64844;BME280;51310;52.198;5.422;2023-05-19T03:45:55;102540.03;;;5.64;100.00
64844;BME280;51310;52.198;5.422;2023-05-19T03:48:22;102545.31;;;5.66;100.00
64844;BME280;51310;52.198;5.422;2023-05-19T03:50:48;102538.16;;;5.63;100.00
64844;BME280;51310;52.198;5.422;2023-05-19T03:53:13;102535.59;;;5.63;100.00
64844;BME280;51310;52.198;5.422;2023-05-19T03:55:39;102541.84;;;5.65;100.00
64844;BME280;51310;52.198;5.422;2023-05-19T03:58:05;102545.31;;;5.66;100.00
64844;BME280;51310;52.198;5.422;2023-05-19T04:00:30;102531.88;;;5.67;100.00
64844;BME280;51310;52.198;5.422;2023-05-19T04:02:56;102540.66;;;5.69;100.00
64844;BME280;51310;52.198;5.422;2023-05-19T04:05:22;102540.22;;;5.66;100.00
64844;BME280;51310;52.198;5.422;2023-05-19T04:07:48;102543.00;;;5.67;100.00
64844;BME280;51310;52.198;5.422;2023-05-19T04:10:13;102548.09;;;5.67;100.00
64844;BME280;51310;52.198;5.422;2023-05-19T04:12:39;102538.53;;;5.72;100.00
64844;BME280;51310;52.198;5.422;2023-05-19T04:15:06;102547.19;;;5.67;100.00
64844;BME280;51310;52.198;5.422;2023-05-19T04:17:32;102543.91;;;5.68;100.00
64844;BME280;51310;52.198;5.422;2023-05-19T04:19:58;102543.66;;;5.72;100.00
64844;BME280;51310;52.198;5.422;2023-05-19T04:22:23;102545.94;;;5.76;100.00
64844;BME280;51310;52.198;5.422;2023-05-19T04:24:49;102551.31;;;5.72;100.00
64844;BME280;51310;52.198;5.422;2023-05-19T04:27:16;102546.66;;;5.75;100.00
64844;BME280;51310;52.198;5.422;2023-05-19T04:29:42;102554.75;;;5.78;100.00
64844;BME280;51310;52.198;5.422;2023-05-19T04:32:08;102554.22;;;5.86;100.00
64844;BME280;51310;52.198;5.422;2023-05-19T04:34:35;102554.19;;;5.92;100.00
64844;BME280;51310;52.198;5.422;2023-05-19T04:37:06;102552.53;;;5.92;100.00
64844;BME280;51310;52.198;5.422;2023-05-19T04:39:32;102549.50;;;6.01;100.00
64844;BME280;51310;52.198;5.422;2023-05-19T04:41:58;102556.13;;;6.11;100.00
64844;BME280;51310;52.198;5.422;2023-05-19T04:44:24;102553.31;;;6.15;100.00
64844;BME280;51310;52.198;5.422;2023-05-19T04:46:51;102554.75;;;6.08;100.00
64844;BME280;51310;52.198;5.422;2023-05-19T04:49:19;102557.91;;;6.18;100.00
64844;BME280;51310;52.198;5.422;2023-05-19T04:51:45;102556.66;;;6.27;100.00
64844;BME280;51310;52.198;5.422;2023-05-19T04:54:14;102554.91;;;6.57;100.00
64844;BME280;51310;52.198;5.422;2023-05-19T04:56:40;102558.25;;;6.69;100.00
64844;BME280;51310;52.198;5.422;2023-05-19T04:59:08;102549.56;;;6.93;100.00
64844;BME280;51310;52.198;5.422;2023-05-19T05:01:35;102546.56;;;7.08;100.00
64844;BME280;51310;52.198;5.422;2023-05-19T05:04:05;102535.84;;;7.42;100.00
64844;BME280;51310;52.198;5.422;2023-05-19T05:06:31;102530.81;;;7.49;100.00
64844;BME280;51310;52.198;5.422;2023-05-19T05:08:58;102525.34;;;7.85;100.00
64844;BME280;51310;52.198;5.422;2023-05-19T05:11:29;102532.00;;;7.90;100.00
64844;BME280;51310;52.198;5.422;2023-05-19T05:13:55;102528.03;;;8.05;100.00
64844;BME280;51310;52.198;5.422;2023-05-19T05:16:25;102528.22;;;8.06;100.00
64844;BME280;51310;52.198;5.422;2023-05-19T05:18:51;102523.31;;;7.95;100.00
64844;BME280;51310;52.198;5.422;2023-05-19T05:21:17;102525.97;;;8.15;100.00
64844;BME280;51310;52.198;5.422;2023-05-19T05:23:43;102525.06;;;8.14;100.00
64844;BME280;51310;52.198;5.422;2023-05-19T05:26:17;102525.25;;;7.90;100.00
64844;BME280;51310;52.198;5.422;2023-05-19T05:28:44;102534.06;;;8.05;100.00
64844;BME280;51310;52.198;5.422;2023-05-19T05:31:10;102530.38;;;8.41;100.00
64844;BME280;51310;52.198;5.422;2023-05-19T05:33:37;102526.66;;;8.85;100.00
64844;BME280;51310;52.198;5.422;2023-05-19T05:36:03;102522.69;;;8.74;100.00
64844;BME280;51310;52.198;5.422;2023-05-19T05:38:30;102519.00;;;8.72;100.00
64844;BME280;51310;52.198;5.422;2023-05-19T05:40:55;102519.56;;;8.90;100.00
64844;BME280;51310;52.198;5.422;2023-05-19T05:43:21;102519.22;;;9.27;100.00
64844;BME280;51310;52.198;5.422;2023-05-19T05:45:47;102521.59;;;9.52;100.00
64844;BME280;51310;52.198;5.422;2023-05-19T05:48:13;102524.63;;;9.35;100.00
64844;BME280;51310;52.198;5.422;2023-05-19T05:50:42;102521.03;;;8.88;100.00
64844;BME280;51310;52.198;5.422;2023-05-19T05:53:16;102520.19;;;9.14;100.00
64844;BME280;51310;52.198;5.422;2023-05-19T05:55:44;102520.75;;;9.39;100.00
64844;BME280;51310;52.198;5.422;2023-05-19T05:58:10;102517.50;;;9.40;100.00
64844;BME280;51310;52.198;5.422;2023-05-19T06:00:37;102518.84;;;9.78;100.00
64844;BME280;51310;52.198;5.422;2023-05-19T06:03:02;102524.88;;;9.98;100.00
64844;BME280;51310;52.198;5.422;2023-05-19T06:05:29;102521.91;;;9.95;100.00
64844;BME280;51310;52.198;5.422;2023-05-19T06:07:55;102518.56;;;10.16;100.00
64844;BME280;51310;52.198;5.422;2023-05-19T06:10:22;102515.03;;;10.09;100.00
64844;BME280;51310;52.198;5.422;2023-05-19T06:12:48;102525.00;;;9.85;100.00
64844;BME280;51310;52.198;5.422;2023-05-19T06:15:13;102525.28;;;9.54;100.00
64844;BME280;51310;52.198;5.422;2023-05-19T06:17:39;102524.19;;;9.52;100.00
64844;BME280;51310;52.198;5.422;2023-05-19T06:20:06;102527.00;;;10.15;100.00
64844;BME280;51310;52.198;5.422;2023-05-19T06:22:33;102520.22;;;10.16;100.00
64844;BME280;51310;52.198;5.422;2023-05-19T06:24:59;102519.66;;;10.53;100.00
64844;BME280;51310;52.198;5.422;2023-05-19T06:27:25;102515.69;;;10.76;100.00
64844;BME280;51310;52.198;5.422;2023-05-19T06:29:51;102521.47;;;10.39;100.00
64844;BME280;51310;52.198;5.422;2023-05-19T06:32:17;102524.38;;;10.08;100.00
64844;BME280;51310;52.198;5.422;2023-05-19T06:34:42;102527.53;;;10.40;100.00
64844;BME280;51310;52.198;5.422;2023-05-19T06:37:08;102521.69;;;10.21;100.00
64844;BME280;51310;52.198;5.422;2023-05-19T06:39:34;102519.91;;;10.00;100.00
64844;BME280;51310;52.198;5.422;2023-05-19T06:41:59;102517.28;;;10.20;100.00
64844;BME280;51310;52.198;5.422;2023-05-19T06:44:25;102523.28;;;10.33;100.00
64844;BME280;51310;52.198;5.422;2023-05-19T06:46:51;102513.44;;;10.58;100.00
64844;BME280;51310;52.198;5.422;2023-05-19T06:49:17;102507.06;;;10.90;100.00
64844;BME280;51310;52.198;5.422;2023-05-19T06:51:43;102512.06;;;10.96;100.00
64844;BME280;51310;52.198;5.422;2023-05-19T06:54:08;102512.16;;;10.68;100.00
64844;BME280;51310;52.198;5.422;2023-05-19T06:56:37;102515.28;;;10.66;100.00
64844;BME280;51310;52.198;5.422;2023-05-19T06:59:03;102518.69;;;10.94;100.00
64844;BME280;51310;52.198;5.422;2023-05-19T07:01:28;102523.84;;;11.01;100.00
64844;BME280;51310;52.198;5.422;2023-05-19T07:03:54;102516.53;;;11.33;100.00
64844;BME280;51310;52.198;5.422;2023-05-19T07:06:20;102509.69;;;11.69;100.00
64844;BME280;51310;52.198;5.422;2023-05-19T07:08:46;102518.16;;;11.46;100.00
64844;BME280;51310;52.198;5.422;2023-05-19T07:11:12;102514.13;;;11.34;100.00
64844;BME280;51310;52.198;5.422;2023-05-19T07:13:38;102513.78;;;11.38;100.00
64844;BME280;51310;52.198;5.422;2023-05-19T07:16:04;102518.91;;;11.67;100.00
64844;BME280;51310;52.198;5.422;2023-05-19T07:18:30;102515.56;;;11.82;100.00
64844;BME280;51310;52.198;5.422;2023-05-19T07:20:56;102505.25;;;11.97;100.00
64844;BME280;51310;52.198;5.422;2023-05-19T07:23:23;102511.84;;;12.09;100.00
64844;BME280;51310;52.198;5.422;2023-05-19T07:25:53;102510.03;;;12.08;100.00
64844;BME280;51310;52.198;5.422;2023-05-19T07:28:19;102507.78;;;12.11;100.00
64844;BME280;51310;52.198;5.422;2023-05-19T07:30:45;102505.41;;;12.57;100.00
64844;BME280;51310;52.198;5.422;2023-05-19T07:33:10;102507.38;;;12.67;100.00
64844;BME280;51310;52.198;5.422;2023-05-19T07:35:36;102508.66;;;12.63;100.00
64844;BME280;51310;52.198;5.422;2023-05-19T07:38:02;102505.75;;;12.90;100.00
64844;BME280;51310;52.198;5.422;2023-05-19T07:40:28;102504.13;;;12.84;100.00
64844;BME280;51310;52.198;5.422;2023-05-19T07:42:53;102502.44;;;12.91;100.00
64844;BME280;51310;52.198;5.422;2023-05-19T07:45:19;102504.50;;;13.10;100.00
64844;BME280;51310;52.198;5.422;2023-05-19T07:47:45;102510.19;;;13.45;100.00
64844;BME280;51310;52.198;5.422;2023-05-19T07:50:11;102506.78;;;13.53;100.00
64844;BME280;51310;52.198;5.422;2023-05-19T07:52:36;102502.69;;;13.39;100.00
64844;BME280;51310;52.198;5.422;2023-05-19T07:55:02;102507.13;;;13.56;100.00
64844;BME280;51310;52.198;5.422;2023-05-19T07:57:28;102495.31;;;13.35;100.00
64844;BME280;51310;52.198;5.422;2023-05-19T07:59:54;102501.91;;;13.79;100.00
64844;BME280;51310;52.198;5.422;2023-05-19T08:02:20;102499.25;;;13.86;100.00
64844;BME280;51310;52.198;5.422;2023-05-19T08:04:45;102493.78;;;13.60;100.00
64844;BME280;51310;52.198;5.422;2023-05-19T08:07:13;102489.84;;;13.87;100.00
64844;BME280;51310;52.198;5.422;2023-05-19T08:09:38;102488.25;;;13.96;99.08
64844;BME280;51310;52.198;5.422;2023-05-19T08:12:05;102499.19;;;13.93;95.16
64844;BME280;51310;52.198;5.422;2023-05-19T08:14:30;102490.09;;;14.13;93.24
64844;BME280;51310;52.198;5.422;2023-05-19T08:16:57;102487.06;;;14.01;95.65
64844;BME280;51310;52.198;5.422;2023-05-19T08:19:23;102483.81;;;14.27;93.70
64844;BME280;51310;52.198;5.422;2023-05-19T08:21:49;102483.22;;;14.13;94.15
64844;BME280;51310;52.198;5.422;2023-05-19T08:24:14;102476.88;;;14.19;92.99
64844;BME280;51310;52.198;5.422;2023-05-19T08:26:42;102475.28;;;14.28;96.44
64844;BME280;51310;52.198;5.422;2023-05-19T08:29:08;102478.97;;;14.30;94.05
64844;BME280;51310;52.198;5.422;2023-05-19T08:31:34;102469.41;;;14.69;90.71
64844;BME280;51310;52.198;5.422;2023-05-19T08:33:59;102470.16;;;14.93;84.43
64844;BME280;51310;52.198;5.422;2023-05-19T08:36:25;102476.34;;;14.62;76.91
64844;BME280;51310;52.198;5.422;2023-05-19T08:38:52;102467.38;;;14.51;75.78
64844;BME280;51310;52.198;5.422;2023-05-19T08:41:17;102465.28;;;14.71;76.56
64844;BME280;51310;52.198;5.422;2023-05-19T08:43:43;102464.78;;;14.91;78.36
64844;BME280;51310;52.198;5.422;2023-05-19T08:46:12;102473.81;;;14.70;75.05
64844;BME280;51310;52.198;5.422;2023-05-19T08:48:43;102460.06;;;14.63;73.97
64844;BME280;51310;52.198;5.422;2023-05-19T08:51:49;102448.28;;;15.15;74.49
64844;BME280;51310;52.198;5.422;2023-05-19T08:54:29;102450.41;;;15.11;72.49
64844;BME280;51310;52.198;5.422;2023-05-19T08:56:59;102446.81;;;14.93;69.78
64844;BME280;51310;52.198;5.422;2023-05-19T08:59:27;102449.84;;;14.89;68.55
64844;BME280;51310;52.198;5.422;2023-05-19T09:01:54;102447.63;;;15.34;68.68
64844;BME280;51310;52.198;5.422;2023-05-19T09:04:20;102444.38;;;14.94;67.82
64844;BME280;51310;52.198;5.422;2023-05-19T09:06:46;102437.84;;;15.31;69.05
64844;BME280;51310;52.198;5.422;2023-05-19T09:09:12;102435.78;;;15.20;68.07
64844;BME280;51310;52.198;5.422;2023-05-19T09:11:38;102440.97;;;15.20;67.85
64844;BME280;51310;52.198;5.422;2023-05-19T09:14:04;102440.63;;;15.50;69.01
64844;BME280;51310;52.198;5.422;2023-05-19T09:16:32;102440.50;;;15.49;68.81
64844;BME280;51310;52.198;5.422;2023-05-19T09:18:58;102446.09;;;15.78;66.65
64844;BME280;51310;52.198;5.422;2023-05-19T09:21:29;102437.72;;;15.47;61.74
64844;BME280;51310;52.198;5.422;2023-05-19T09:24:03;102444.63;;;15.55;59.96
64844;BME280;51310;52.198;5.422;2023-05-19T09:29:16;102440.81;;;15.52;61.54
64844;BME280;51310;52.198;5.422;2023-05-19T09:31:49;102438.94;;;15.33;61.38
64844;BME280;51310;52.198;5.422;2023-05-19T09:34:16;102447.94;;;15.46;60.58
64844;BME280;51310;52.198;5.422;2023-05-19T09:36:42;102439.91;;;15.60;61.49
64844;BME280;51310;52.198;5.422;2023-05-19T09:39:15;102443.97;;;16.00;61.46
64844;BME280;51310;52.198;5.422;2023-05-19T09:41:41;102442.69;;;15.70;61.07
64844;BME280;51310;52.198;5.422;2023-05-19T09:44:11;102438.75;;;15.74;61.27
64844;BME280;51310;52.198;5.422;2023-05-19T09:46:37;102436.59;;;15.78;61.57
64844;BME280;51310;52.198;5.422;2023-05-19T09:49:09;102434.06;;;16.13;61.99
64844;BME280;51310;52.198;5.422;2023-05-19T09:51:35;102436.97;;;16.25;60.52
64844;BME280;51310;52.198;5.422;2023-05-19T09:54:04;102441.69;;;15.94;59.16
64844;BME280;51310;52.198;5.422;2023-05-19T09:56:37;102433.00;;;16.20;58.13
64844;BME280;51310;52.198;5.422;2023-05-19T09:59:04;102431.16;;;16.19;58.25
64844;BME280;51310;52.198;5.422;2023-05-19T10:01:32;102431.41;;;15.78;57.71
64844;BME280;51310;52.198;5.422;2023-05-19T10:04:02;102430.06;;;16.17;57.98
64844;BME280;51310;52.198;5.422;2023-05-19T10:06:29;102432.38;;;16.05;58.13
64844;BME280;51310;52.198;5.422;2023-05-19T10:08:55;102438.94;;;15.93;58.40
64844;BME280;51310;52.198;5.422;2023-05-19T10:11:23;102430.34;;;15.76;57.25
64844;BME280;51310;52.198;5.422;2023-05-19T10:13:50;102425.66;;;15.90;57.46
64844;BME280;51310;52.198;5.422;2023-05-19T10:16:18;102418.47;;;16.31;58.29
64844;BME280;51310;52.198;5.422;2023-05-19T10:18:46;102420.91;;;16.29;58.70
64844;BME280;51310;52.198;5.422;2023-05-19T10:21:13;102412.22;;;15.94;58.80
64844;BME280;51310;52.198;5.422;2023-05-19T10:23:38;102413.88;;;15.93;59.19
64844;BME280;51310;52.198;5.422;2023-05-19T10:26:05;102407.16;;;16.04;58.89
64844;BME280;51310;52.198;5.422;2023-05-19T10:28:38;102404.25;;;15.75;59.28
64844;BME280;51310;52.198;5.422;2023-05-19T10:31:10;102408.84;;;16.04;59.26
64844;BME280;51310;52.198;5.422;2023-05-19T10:37:16;102398.25;;;16.46;58.67
64844;BME280;51310;52.198;5.422;2023-05-19T10:39:47;102409.16;;;16.33;56.02
64844;BME280;51310;52.198;5.422;2023-05-19T10:45:16;102401.34;;;16.42;56.14
64844;BME280;51310;52.198;5.422;2023-05-19T10:47:43;102401.63;;;16.36;54.85
64844;BME280;51310;52.198;5.422;2023-05-19T10:50:10;102393.59;;;16.69;54.90
64844;BME280;51310;52.198;5.422;2023-05-19T10:52:39;102396.53;;;16.81;55.04
64844;BME280;51310;52.198;5.422;2023-05-19T10:55:11;102397.16;;;16.70;54.30
64844;BME280;51310;52.198;5.422;2023-05-19T10:57:53;102399.00;;;16.62;52.98
64844;BME280;51310;52.198;5.422;2023-05-19T11:00:29;102400.09;;;16.47;51.30
64844;BME280;51310;52.198;5.422;2023-05-19T11:03:12;102399.72;;;16.78;53.47
64844;BME280;51310;52.198;5.422;2023-05-19T11:05:39;102398.16;;;16.98;51.78
64844;BME280;51310;52.198;5.422;2023-05-19T11:08:05;102388.94;;;17.01;53.10
64844;BME280;51310;52.198;5.422;2023-05-19T11:10:36;102389.91;;;16.93;52.24
64844;BME280;51310;52.198;5.422;2023-05-19T11:13:03;102383.94;;;16.94;51.88
64844;BME280;51310;52.198;5.422;2023-05-19T11:15:34;102382.38;;;17.33;53.43
64844;BME280;51310;52.198;5.422;2023-05-19T11:18:03;102377.91;;;17.13;54.58
64844;BME280;51310;52.198;5.422;2023-05-19T11:20:29;102384.44;;;16.73;52.20
64844;BME280;51310;52.198;5.422;2023-05-19T11:23:14;102391.09;;;16.97;50.55
64844;BME280;51310;52.198;5.422;2023-05-19T11:25:49;102386.94;;;17.35;50.39
64844;BME280;51310;52.198;5.422;2023-05-19T11:28:21;102379.25;;;17.46;50.79
64844;BME280;51310;52.198;5.422;2023-05-19T11:30:54;102381.94;;;17.28;51.31
64844;BME280;51310;52.198;5.422;2023-05-19T11:33:22;102375.88;;;17.10;49.95
64844;BME280;51310;52.198;5.422;2023-05-19T11:35:54;102375.72;;;17.17;51.12
64844;BME280;51310;52.198;5.422;2023-05-19T11:38:22;102365.94;;;17.15;55.11
64844;BME280;51310;52.198;5.422;2023-05-19T11:40:51;102368.44;;;17.05;57.37
64844;BME280;51310;52.198;5.422;2023-05-19T11:43:17;102373.59;;;17.13;54.24
64844;BME280;51310;52.198;5.422;2023-05-19T11:45:44;102357.94;;;17.50;55.11
64844;BME280;51310;52.198;5.422;2023-05-19T11:48:13;102361.53;;;17.60;56.10
64844;BME280;51310;52.198;5.422;2023-05-19T11:50:40;102361.13;;;17.47;57.73
64844;BME280;51310;52.198;5.422;2023-05-19T11:53:14;102366.69;;;17.41;57.97
64844;BME280;51310;52.198;5.422;2023-05-19T11:55:45;102352.69;;;17.31;60.21
64844;BME280;51310;52.198;5.422;2023-05-19T11:58:12;102348.13;;;17.28;59.20
64844;BME280;51310;52.198;5.422;2023-05-19T12:00:40;102345.72;;;17.40;58.97
64844;BME280;51310;52.198;5.422;2023-05-19T12:03:06;102352.22;;;17.73;59.68
64844;BME280;51310;52.198;5.422;2023-05-19T12:05:35;102351.06;;;17.69;59.16
64844;BME280;51310;52.198;5.422;2023-05-19T12:08:01;102355.78;;;17.73;58.55
64844;BME280;51310;52.198;5.422;2023-05-19T12:10:30;102351.50;;;17.46;59.51
64844;BME280;51310;52.198;5.422;2023-05-19T12:12:56;102358.22;;;17.25;58.53
64844;BME280;51310;52.198;5.422;2023-05-19T12:15:24;102353.84;;;17.15;59.39
64844;BME280;51310;52.198;5.422;2023-05-19T12:17:56;102356.56;;;17.26;59.19
64844;BME280;51310;52.198;5.422;2023-05-19T12:20:23;102350.03;;;17.39;59.34
64844;BME280;51310;52.198;5.422;2023-05-19T12:22:50;102359.75;;;17.70;58.66
64844;BME280;51310;52.198;5.422;2023-05-19T12:25:18;102347.50;;;17.69;59.03
64844;BME280;51310;52.198;5.422;2023-05-19T12:27:44;102350.25;;;17.70;57.26
64844;BME280;51310;52.198;5.422;2023-05-19T12:30:11;102343.66;;;17.74;56.69
64844;BME280;51310;52.198;5.422;2023-05-19T12:32:41;102342.34;;;17.88;57.47
64844;BME280;51310;52.198;5.422;2023-05-19T12:35:07;102343.75;;;17.37;55.70
64844;BME280;51310;52.198;5.422;2023-05-19T12:37:35;102341.91;;;17.36;55.24
64844;BME280;51310;52.198;5.422;2023-05-19T12:40:02;102338.44;;;17.55;55.57
64844;BME280;51310;52.198;5.422;2023-05-19T12:42:29;102335.13;;;17.66;55.66
64844;BME280;51310;52.198;5.422;2023-05-19T12:44:59;102327.59;;;18.07;53.07
64844;BME280;51310;52.198;5.422;2023-05-19T12:47:35;102331.16;;;17.89;54.23
64844;BME280;51310;52.198;5.422;2023-05-19T12:50:08;102327.34;;;17.85;53.97
64844;BME280;51310;52.198;5.422;2023-05-19T12:52:54;102323.38;;;17.99;52.58
64844;BME280;51310;52.198;5.422;2023-05-19T12:55:20;102331.72;;;17.95;52.18
64844;BME280;51310;52.198;5.422;2023-05-19T12:57:50;102327.81;;;18.00;55.06
64844;BME280;51310;52.198;5.422;2023-05-19T13:00:21;102327.47;;;18.06;53.35
64844;BME280;51310;52.198;5.422;2023-05-19T13:03:02;102318.44;;;18.21;53.52
64844;BME280;51310;52.198;5.422;2023-05-19T13:05:32;102324.63;;;18.42;54.55
64844;BME280;51310;52.198;5.422;2023-05-19T13:08:05;102319.69;;;18.16;52.62
64844;BME280;51310;52.198;5.422;2023-05-19T13:10:34;102316.44;;;18.18;52.18
64844;BME280;51310;52.198;5.422;2023-05-19T13:13:01;102311.13;;;18.17;52.93
64844;BME280;51310;52.198;5.422;2023-05-19T13:15:31;102315.94;;;17.93;52.74